Time;durP1;ratioP1;P1;durP2;ratioP2;P2;SDS_P1;SDS_P2;PMS_P1;PMS_P2;Temp;Humidity;BMP_temperature;BMP_pressure;BME280_temperature;BME280_humidity;BME280_pressure;Samples;Min_cycle;Max_cycle;Signal;HPM_P1;HPM_P2
2021/12/13 00:01:23;;;;;;;12.95;4.40;;;;;;;9.56;84.12;102512.56;5024450;28;20017;-72
2021/12/13 00:03:56;;;;;;;19.10;4.85;;;;;;;9.63;83.54;102504.66;5017976;28;20033;-71
2021/12/13 00:06:34;;;;;;;11.00;3.90;;;;;;;9.58;83.49;102508.16;5023843;28;20068;-72
2021/12/13 00:09:05;;;;;;;11.48;3.10;;;;;;;9.55;83.48;102513.44;5006594;28;20029;-74
2021/12/13 00:11:34;;;;;;;11.52;4.60;;;;;;;9.54;83.63;102509.03;5024213;28;20079;-75
2021/12/13 00:14:07;;;;;;;6.80;3.10;;;;;;;9.51;83.50;102518.72;5005237;28;20038;-72
2021/12/13 00:16:36;;;;;;;8.95;2.95;;;;;;;9.48;83.86;102515.19;5023749;28;20052;-75
2021/12/13 00:19:07;;;;;;;15.88;4.82;;;;;;;9.47;84.04;102512.56;5023196;28;20030;-75
2021/12/13 00:21:39;;;;;;;8.10;3.08;;;;;;;9.45;84.12;102509.94;5023224;28;20052;-74
2021/12/13 00:24:09;;;;;;;8.65;3.10;;;;;;;9.44;84.19;102513.47;5029933;28;20059;-74
2021/12/13 00:26:40;;;;;;;9.18;3.67;;;;;;;9.46;83.89;102516.09;5027431;28;20575;-74
2021/12/13 00:29:19;;;;;;;8.38;3.30;;;;;;;9.36;84.23;102509.94;5024309;28;20029;-72
2021/12/13 00:32:04;;;;;;;8.85;3.08;;;;;;;9.38;83.93;102507.31;5006601;28;20040;-60
2021/12/13 00:34:33;;;;;;;9.63;3.03;;;;;;;9.32;83.96;102502.94;4989595;28;20025;-73
2021/12/13 00:37:05;;;;;;;9.88;4.00;;;;;;;9.26;84.42;102509.09;5024020;28;20049;-75
2021/12/13 00:39:36;;;;;;;6.22;3.15;;;;;;;9.20;84.07;102514.38;5023597;28;20092;-73
2021/12/13 00:42:03;;;;;;;9.95;2.53;;;;;;;9.18;84.11;102510.88;5023444;28;20021;-73
2021/12/13 00:44:34;;;;;;;10.57;2.97;;;;;;;9.17;84.28;102510.00;5021369;28;20163;-73
2021/12/13 00:47:06;;;;;;;6.25;2.28;;;;;;;9.18;84.38;102516.16;5004988;28;20432;-74
2021/12/13 00:49:32;;;;;;;6.80;2.55;;;;;;;9.10;84.10;102513.50;5029895;28;20505;-72
2021/12/13 00:51:58;;;;;;;5.35;2.40;;;;;;;9.15;84.15;102510.88;5008826;28;20021;-73
2021/12/13 00:54:27;;;;;;;6.55;2.33;;;;;;;9.13;83.94;102516.16;5042230;28;20017;-73
2021/12/13 00:56:59;;;;;;;;;;;;;;;9.15;84.22;102517.00;5025145;28;20341;-73
2021/12/13 00:59:38;;;;;;;5.85;1.83;;;;;;;9.10;84.13;102518.78;5038073;28;19917;-77
2021/12/13 01:02:09;;;;;;;;;;;;;;;9.08;83.90;102526.66;5005842;28;20017;-72
2021/12/13 01:04:54;;;;;;;10.00;3.33;;;;;;;9.08;83.77;102528.41;5021673;28;20009;-71
2021/12/13 01:07:56;;;;;;;8.85;2.38;;;;;;;9.00;83.70;102528.41;5022622;28;20104;-72
2021/12/13 01:10:40;;;;;;;9.45;2.20;;;;;;;9.04;83.84;102534.53;5022575;28;20032;-74
2021/12/13 01:13:19;;;;;;;9.80;1.95;;;;;;;9.14;82.96;102532.78;5004654;28;20087;-71
2021/12/13 01:16:11;;;;;;;4.78;1.60;;;;;;;9.13;83.39;102533.66;5027799;28;20374;-59
2021/12/13 01:19:01;;;;;;;9.30;1.83;;;;;;;9.18;82.95;102529.28;5035744;28;20045;-71
2021/12/13 01:21:42;;;;;;;5.65;1.67;;;;;;;9.20;82.66;102530.16;5002433;28;20064;-73
2021/12/13 01:24:19;;;;;;;10.30;2.92;;;;;;;9.19;82.44;102533.66;5016818;28;20561;-72
2021/12/13 01:26:48;;;;;;;4.60;1.67;;;;;;;9.20;82.33;102530.16;5022847;28;20029;-72
2021/12/13 01:29:25;;;;;;;6.20;1.63;;;;;;;9.20;81.96;102533.66;5019058;28;20037;-74
2021/12/13 01:31:56;;;;;;;4.70;1.98;;;;;;;9.18;81.98;102543.31;5022331;28;20331;-79
2021/12/13 01:34:23;;;;;;;5.70;1.63;;;;;;;9.21;81.55;102540.66;5004601;28;20033;-64
2021/12/13 01:37:03;;;;;;;3.95;1.67;;;;;;;9.23;81.42;102540.66;5023442;28;20075;-74
2021/12/13 01:39:30;;;;;;;3.42;1.75;;;;;;;9.22;81.36;102542.41;5019679;28;20049;-70
2021/12/13 01:42:09;;;;;;;5.90;1.98;;;;;;;9.22;81.29;102544.19;5015718;28;20036;-73
2021/12/13 01:44:36;;;;;;;;;;;;;;;9.18;81.38;102545.94;5024112;28;20113;-73
2021/12/13 01:47:10;;;;;;;5.18;1.80;;;;;;;9.21;81.58;102552.94;5006866;28;20030;-71
2021/12/13 01:50:05;;;;;;;4.70;1.75;;;;;;;9.20;81.66;102548.56;5006156;28;20032;-72
2021/12/13 01:52:33;;;;;;;18.20;4.10;;;;;;;9.25;81.24;102543.31;5018425;28;20097;-72
2021/12/13 01:55:06;;;;;;;3.70;1.50;;;;;;;9.22;81.19;102544.19;5006616;28;20219;-71
2021/12/13 01:57:48;;;;;;;4.53;1.85;;;;;;;9.22;81.63;102549.44;4989238;28;20044;-72
2021/12/13 02:00:44;;;;;;;3.50;2.20;;;;;;;9.21;81.61;102550.31;5006733;28;20152;-73
2021/12/13 02:03:10;;;;;;;6.13;2.40;;;;;;;9.19;81.16;102552.97;5013235;28;20064;-72
2021/12/13 02:05:35;;;;;;;6.65;2.45;;;;;;;9.18;81.48;102550.34;5018739;28;20537;-73
2021/12/13 02:08:07;;;;;;;6.28;3.00;;;;;;;9.15;81.63;102545.94;5023779;28;20030;-73
2021/12/13 02:10:36;;;;;;;8.48;3.65;;;;;;;9.24;81.42;102560.81;5070894;23;20053;-72
2021/12/13 02:13:06;;;;;;;8.38;3.63;;;;;;;9.18;81.58;102552.97;5021852;28;20079;-73
2021/12/13 02:18:23;;;;;;;10.60;4.77;;;;;;;9.15;81.96;102551.19;5009287;28;20103;-71
2021/12/13 02:20:57;;;;;;;9.43;5.18;;;;;;;9.16;82.15;102549.44;5006642;28;20463;-74
2021/12/13 02:23:22;;;;;;;10.40;5.90;;;;;;;9.13;82.28;102549.44;5016903;28;20132;-74
2021/12/13 02:25:50;;;;;;;10.25;5.63;;;;;;;9.17;82.30;102551.19;5003080;28;20033;-73
2021/12/13 02:28:20;;;;;;;11.27;5.88;;;;;;;9.13;82.11;102549.44;5020733;28;20075;-73
2021/12/13 02:30:54;;;;;;;12.23;7.15;;;;;;;9.10;82.24;102551.19;5014428;28;20034;-73
2021/12/13 02:33:30;;;;;;;11.73;5.60;;;;;;;9.09;82.14;102554.69;5011167;28;20026;-73
2021/12/13 02:36:00;;;;;;;10.23;7.03;;;;;;;9.08;82.63;102563.47;5020056;28;20363;-72
2021/12/13 02:38:26;;;;;;;11.60;7.65;;;;;;;9.10;82.57;102566.97;5015980;28;20045;-71
2021/12/13 02:40:52;;;;;;;12.18;7.72;;;;;;;9.12;82.58;102558.22;5016115;28;20032;-73
2021/12/13 02:43:21;;;;;;;14.23;6.85;;;;;;;9.07;82.60;102553.84;5026387;28;20048;-73
2021/12/13 02:45:50;;;;;;;10.00;6.50;;;;;;;9.05;82.69;102558.22;5025578;28;20104;-73
2021/12/13 02:48:22;;;;;;;15.43;8.88;;;;;;;8.92;83.21;102559.97;5022225;28;20029;-75
2021/12/13 02:50:53;;;;;;;15.70;8.35;;;;;;;9.02;82.62;102557.31;5014445;28;20045;-71
2021/12/13 02:53:23;;;;;;;14.75;8.88;;;;;;;9.05;82.74;102552.94;5025722;28;20061;-73
2021/12/13 02:55:48;;;;;;;17.38;8.50;;;;;;;9.02;83.02;102555.59;5025101;28;20102;-73
2021/12/13 02:58:17;;;;;;;12.30;8.20;;;;;;;8.99;82.82;102558.22;5021068;28;20460;-75
2021/12/13 03:01:19;;;;;;;14.25;7.90;;;;;;;9.01;83.07;102545.06;5016692;28;20041;-72
2021/12/13 03:03:48;;;;;;;14.85;8.30;;;;;;;8.98;82.79;102546.81;5008959;28;20709;-72
2021/12/13 03:06:17;;;;;;;10.73;8.05;;;;;;;8.97;82.90;102547.69;5025042;28;20224;-72
2021/12/13 03:08:50;;;;;;;18.10;9.82;;;;;;;8.93;83.00;102542.44;5022969;28;20488;-73
2021/12/13 03:11:24;;;;;;;11.98;8.88;;;;;;;8.94;83.22;102552.94;5013185;28;20045;-73
2021/12/13 03:13:57;;;;;;;13.80;8.25;;;;;;;9.00;82.92;102543.31;5008556;28;20033;-71
2021/12/13 03:16:28;;;;;;;13.40;8.35;;;;;;;8.97;82.97;102545.06;5005492;28;20223;-73
2021/12/13 03:19:08;;;;;;;11.88;8.25;;;;;;;9.02;82.62;102541.53;5017521;28;20377;-74
2021/12/13 03:22:10;;;;;;;12.25;7.72;;;;;;;9.06;82.31;102543.31;5011377;28;20133;-72
2021/12/13 03:24:35;;;;;;;10.10;7.35;;;;;;;9.02;82.55;102541.53;5006660;28;20052;-73
2021/12/13 03:27:04;;;;;;;12.23;7.97;;;;;;;9.03;82.16;102554.69;5005244;28;20030;-74
2021/12/13 03:29:48;;;;;;;9.03;7.23;;;;;;;9.01;82.18;102552.94;5018967;28;20140;-75
2021/12/13 03:32:15;;;;;;;9.45;6.70;;;;;;;9.05;81.91;102546.81;5013382;28;20129;-73
2021/12/13 03:34:52;;;;;;;10.75;7.80;;;;;;;9.09;81.63;102546.81;5008860;28;20029;-73
2021/12/13 03:37:21;;;;;;;12.13;7.50;;;;;;;9.08;81.39;102547.69;5023490;28;20057;-70
2021/12/13 03:39:50;;;;;;;12.35;7.20;;;;;;;9.10;81.57;102545.94;5018214;28;20037;-72
2021/12/13 03:42:27;;;;;;;11.88;7.40;;;;;;;9.16;81.37;102554.72;5025117;28;20538;-74
2021/12/13 03:44:55;;;;;;;11.80;7.28;;;;;;;9.16;81.38;102552.06;5019577;28;20036;-74
2021/12/13 03:47:27;;;;;;;10.68;7.07;;;;;;;9.16;80.89;102542.44;5004905;28;20032;-76
2021/12/13 03:49:56;;;;;;;10.70;7.75;;;;;;;9.13;81.11;102539.81;5014521;28;20392;-71
2021/12/13 03:52:24;;;;;;;8.68;6.30;;;;;;;9.12;81.51;102538.03;5018031;28;20026;-72
2021/12/13 03:54:52;;;;;;;8.37;5.83;;;;;;;9.11;81.07;102536.28;5017155;28;20143;-74
2021/12/13 03:57:18;;;;;;;9.32;7.07;;;;;;;9.13;81.05;102534.56;5024360;28;20044;-71
2021/12/13 03:59:45;;;;;;;9.02;6.78;;;;;;;9.14;80.96;102538.03;5024765;28;20040;-73
2021/12/13 04:02:18;;;;;;;14.43;8.00;;;;;;;9.14;80.72;102535.41;5025351;28;20036;-72
2021/12/13 04:04:47;;;;;;;8.82;5.90;;;;;;;9.12;80.63;102537.19;5023866;28;20057;-71
2021/12/13 04:07:18;;;;;;;12.90;7.03;;;;;;;9.09;81.05;102538.94;5025513;28;20036;-73
2021/12/13 04:09:45;;;;;;;16.73;6.80;;;;;;;9.04;81.45;102535.44;5023952;28;20083;-72
2021/12/13 04:12:13;;;;;;;12.30;6.30;;;;;;;9.05;80.96;102526.66;5025220;28;20463;-72
2021/12/13 04:14:48;;;;;;;8.77;7.38;;;;;;;9.02;81.05;102537.19;5015502;28;20492;-72
2021/12/13 04:17:34;;;;;;;11.82;6.07;;;;;;;9.04;81.37;102534.53;5019661;28;20034;-71
2021/12/13 04:20:00;;;;;;;11.93;7.00;;;;;;;9.06;81.00;102528.41;5003176;28;20121;-72
2021/12/13 04:22:30;;;;;;;8.02;5.60;;;;;;;9.07;80.66;102530.19;5022136;28;20320;-71
2021/12/13 04:25:03;;;;;;;9.85;6.63;;;;;;;9.06;80.95;102527.53;5016364;28;20030;-71
2021/12/13 04:27:31;;;;;;;11.60;6.07;;;;;;;9.03;80.67;102531.03;5020058;28;20482;-72
2021/12/13 04:30:05;;;;;;;9.60;6.40;;;;;;;9.06;80.85;102538.91;5022089;28;20056;-72
2021/12/13 04:32:34;;;;;;;9.25;6.75;;;;;;;9.04;80.43;102551.22;5007101;28;20502;-72
2021/12/13 04:35:03;;;;;;;6.57;4.80;;;;;;;9.04;80.41;102534.53;5022884;28;20026;-72
2021/12/13 04:37:34;;;;;;;10.18;6.13;;;;;;;9.04;80.50;102535.44;5024186;28;20033;-71
2021/12/13 04:40:07;;;;;;;8.05;6.15;;;;;;;9.08;80.15;102541.56;5024174;28;20014;-72
2021/12/13 04:42:32;;;;;;;7.45;5.03;;;;;;;9.09;79.67;102538.94;5024014;28;20040;-71
2021/12/13 04:45:03;;;;;;;9.77;5.80;;;;;;;9.07;79.87;102539.81;5021997;28;20017;-72
2021/12/13 04:47:38;;;;;;;12.48;6.35;;;;;;;8.98;80.47;102538.06;5016627;28;20048;-71
2021/12/13 04:50:12;;;;;;;12.57;5.57;;;;;;;9.03;79.78;102541.56;5005556;28;20060;-71
2021/12/13 04:52:38;;;;;;;5.75;5.07;;;;;;;9.01;79.74;102535.44;5023911;28;20071;-73
2021/12/13 04:55:13;;;;;;;8.65;4.78;;;;;;;9.01;79.77;102535.44;5017526;28;20426;-73
2021/12/13 04:57:38;;;;;;;5.88;4.50;;;;;;;9.03;79.55;102536.28;5015073;28;20030;-72
2021/12/13 05:00:13;;;;;;;10.10;4.30;;;;;;;9.08;79.20;102536.28;5004692;28;20182;-73
2021/12/13 05:02:43;;;;;;;8.32;5.05;;;;;;;9.09;79.08;102531.03;4996244;28;20383;-73
2021/12/13 05:05:09;;;;;;;10.43;4.80;;;;;;;9.13;78.77;102541.56;5010483;28;20083;-76
2021/12/13 05:07:36;;;;;;;7.65;4.68;;;;;;;9.09;78.60;102546.81;5002572;28;20029;-71
2021/12/13 05:10:04;;;;;;;10.52;4.05;;;;;;;9.14;78.28;102549.44;5005798;28;20042;-72
2021/12/13 05:12:29;;;;;;;8.32;4.85;;;;;;;9.15;78.50;102550.34;5007619;28;20026;-73
2021/12/13 05:15:02;;;;;;;8.32;5.05;;;;;;;9.14;78.18;102551.19;5019376;28;20029;-71
2021/12/13 05:17:35;;;;;;;10.65;4.57;;;;;;;9.15;78.19;102555.59;5027809;28;20095;-72
2021/12/13 05:20:10;;;;;;;6.68;4.82;;;;;;;9.18;78.21;102552.97;5029831;28;20110;-72
2021/12/13 05:22:48;;;;;;;7.95;4.47;;;;;;;9.14;78.47;102559.06;5028511;28;20107;-71
2021/12/13 05:25:21;;;;;;;6.18;4.70;;;;;;;9.14;78.37;102549.44;5029452;28;20029;-71
2021/12/13 05:27:57;;;;;;;7.43;5.15;;;;;;;9.10;78.45;102553.81;5031777;28;20038;-72
2021/12/13 05:30:23;;;;;;;9.82;4.90;;;;;;;9.12;78.13;102556.44;5033339;28;20034;-74
2021/12/13 05:32:52;;;;;;;5.93;4.50;;;;;;;9.12;78.38;102548.56;5030840;28;20499;-71
2021/12/13 05:35:22;;;;;;;;;;;;;;;9.11;78.09;102546.81;5032485;28;20125;-73
2021/12/13 05:37:58;;;;;;;9.95;5.22;;;;;;;9.12;77.96;102558.22;5032616;28;20000;-71
2021/12/13 05:40:35;;;;;;;7.05;4.22;;;;;;;9.14;77.95;102545.94;5032186;28;20052;-74
2021/12/13 05:43:11;;;;;;;9.60;4.90;;;;;;;9.13;77.94;102549.44;5011668;28;20051;-74
2021/12/13 05:45:40;;;;;;;7.38;4.78;;;;;;;9.10;77.84;102545.94;5028198;28;20053;-71
2021/12/13 05:48:15;;;;;;;5.87;4.67;;;;;;;9.08;78.01;102547.69;5009377;28;20036;-73
2021/12/13 05:50:43;;;;;;;10.55;5.20;;;;;;;9.08;78.00;102549.44;5027206;28;20026;-75
2021/12/13 05:53:30;;;;;;;7.72;5.05;;;;;;;9.08;77.79;102552.97;5026951;28;20472;-73
2021/12/13 05:56:09;;;;;;;7.53;4.65;;;;;;;9.14;77.78;102551.19;5026227;28;20459;-73
2021/12/13 05:58:46;;;;;;;7.75;4.38;;;;;;;9.18;77.44;102555.59;5027423;28;20088;-74
2021/12/13 06:01:16;;;;;;;6.60;4.30;;;;;;;9.15;77.33;102560.84;5020322;28;20036;-73
2021/12/13 06:03:49;;;;;;;6.93;4.32;;;;;;;9.13;77.45;102558.22;5007368;28;20120;-73
2021/12/13 06:06:20;;;;;;;7.10;4.70;;;;;;;9.12;77.55;102563.47;5018792;28;20029;-68
2021/12/13 06:08:49;;;;;;;6.03;3.90;;;;;;;9.08;77.76;102554.69;5018462;28;20029;-73
2021/12/13 06:11:18;;;;;;;8.60;5.15;;;;;;;9.10;77.22;102560.84;5006031;28;20110;-75
2021/12/13 06:13:43;;;;;;;8.43;5.80;;;;;;;9.15;76.89;102552.97;5027735;28;20061;-74
2021/12/13 06:16:19;;;;;;;7.75;5.20;;;;;;;9.15;77.03;102547.69;5025692;28;20119;-61
2021/12/13 06:19:02;;;;;;;8.40;4.80;;;;;;;9.10;77.24;102560.84;5007102;28;20355;-63
2021/12/13 06:21:40;;;;;;;10.73;5.35;;;;;;;9.13;77.43;102559.97;5004167;28;20122;-65
2021/12/13 06:24:05;;;;;;;8.02;5.10;;;;;;;9.14;77.20;102559.06;5007751;28;20033;-64
2021/12/13 06:26:31;;;;;;;10.80;5.25;;;;;;;9.14;77.10;102565.22;5011763;28;20390;-69
2021/12/13 06:29:00;;;;;;;9.98;6.25;;;;;;;9.02;77.73;102560.84;5006014;28;20495;-70
2021/12/13 06:31:35;;;;;;;8.70;5.80;;;;;;;8.99;78.05;102566.09;5016373;28;20472;-68
2021/12/13 06:34:05;;;;;;;10.43;5.78;;;;;;;9.06;77.96;102569.63;5015904;28;20088;-67
2021/12/13 06:36:37;;;;;;;;;;;;;;;9.06;77.84;102570.47;5015698;28;20110;-75
2021/12/13 06:39:14;;;;;;;9.38;6.13;;;;;;;9.07;77.87;102556.47;5017532;28;20193;-75
2021/12/13 06:41:45;;;;;;;9.48;7.18;;;;;;;9.09;77.89;102565.22;5016649;28;20519;-79
2021/12/13 06:44:26;;;;;;;13.52;7.65;;;;;;;9.07;77.90;102560.84;5019770;28;20041;-72
2021/12/13 06:46:54;;;;;;;9.57;7.57;;;;;;;9.07;78.26;102568.72;5016092;28;20494;-73
2021/12/13 06:49:32;;;;;;;12.00;7.47;;;;;;;9.06;78.19;102570.47;5018133;28;20038;-74
2021/12/13 06:51:57;;;;;;;14.13;7.82;;;;;;;9.04;78.40;102574.00;5020483;28;20357;-67
2021/12/13 06:54:34;;;;;;;15.52;8.20;;;;;;;9.08;78.27;102571.38;5025494;28;20095;-67
2021/12/13 06:57:19;;;;;;;12.75;8.18;;;;;;;9.04;78.55;102574.00;5025200;28;20029;-67
2021/12/13 06:59:57;;;;;;;13.38;8.60;;;;;;;9.04;78.54;102574.88;5022366;28;20032;-63
2021/12/13 07:02:47;;;;;;;12.88;8.82;;;;;;;9.03;78.34;102582.75;5018353;28;20013;-66
2021/12/13 07:05:43;;;;;;;14.43;9.63;;;;;;;8.99;78.76;102587.13;5015419;28;20412;-73
2021/12/13 07:08:16;;;;;;;10.63;8.18;;;;;;;8.99;78.40;102584.50;5004350;28;20508;-66
2021/12/13 07:10:55;;;;;;;16.35;9.73;;;;;;;9.01;78.61;102589.75;5014596;28;20037;-68
2021/12/13 07:13:28;;;;;;;17.67;9.25;;;;;;;9.04;78.48;102587.13;5020427;28;20029;-70
2021/12/13 07:16:01;;;;;;;15.85;10.75;;;;;;;9.01;78.11;102595.03;5005328;28;20026;-70
2021/12/13 07:18:37;;;;;;;16.27;10.00;;;;;;;9.05;78.20;102600.28;5007026;28;20164;-71
2021/12/13 07:21:32;;;;;;;20.33;9.63;;;;;;;9.00;78.06;102596.75;5013394;28;20398;-70
2021/12/13 07:24:03;;;;;;;16.63;9.35;;;;;;;9.03;78.11;102594.13;5004718;28;20038;-71
2021/12/13 07:26:57;;;;;;;19.27;9.85;;;;;;;9.03;77.89;102599.41;5025724;28;20026;-70
2021/12/13 07:29:29;;;;;;;19.70;9.98;;;;;;;9.02;78.25;102605.53;5019886;28;20100;-69
2021/12/13 07:32:12;;;;;;;15.90;9.02;;;;;;;9.06;78.04;102609.91;5024840;28;20029;-70
2021/12/13 07:34:55;;;;;;;16.58;8.63;;;;;;;9.06;77.88;102607.28;5017360;28;20041;-71
2021/12/13 07:37:47;;;;;;;17.35;9.63;;;;;;;9.00;78.33;102602.03;5016787;28;20025;-70
2021/12/13 07:40:13;;;;;;;16.00;8.68;;;;;;;8.98;78.57;102606.41;5023621;28;20470;-71
2021/12/13 07:42:39;;;;;;;15.50;9.63;;;;;;;8.99;78.09;102608.16;5024672;28;20128;-72
2021/12/13 07:45:22;;;;;;;15.10;10.27;;;;;;;8.96;78.57;102611.69;5022722;28;20036;-73
2021/12/13 07:47:48;;;;;;;20.38;9.60;;;;;;;8.96;78.64;102610.78;5023443;28;20043;-71
2021/12/13 07:50:13;;;;;;;19.25;9.70;;;;;;;8.94;78.67;102617.81;5006702;28;20386;-71
2021/12/13 07:52:39;;;;;;;13.82;8.82;;;;;;;8.95;78.39;102619.56;5024880;28;20108;-72
2021/12/13 07:55:22;;;;;;;19.75;10.23;;;;;;;8.95;78.43;102630.06;4998044;28;20384;-72
2021/12/13 07:57:48;;;;;;;16.88;9.23;;;;;;;8.99;78.38;102626.56;5004629;28;20030;-72
2021/12/13 08:00:21;;;;;;;17.30;10.52;;;;;;;8.98;78.16;102632.72;5017001;28;20022;-73
2021/12/13 08:02:59;;;;;;;16.38;10.45;;;;;;;8.98;78.63;102633.56;5019419;28;20112;-75
2021/12/13 08:05:29;;;;;;;18.03;9.43;;;;;;;9.01;78.46;102634.47;5018780;28;20010;-75
2021/12/13 08:07:59;;;;;;;17.85;9.70;;;;;;;9.00;78.21;102630.94;5022943;28;20026;-74
2021/12/13 08:10:28;;;;;;;15.20;10.00;;;;;;;9.01;78.32;102629.19;5022311;28;20368;-74
2021/12/13 08:12:55;;;;;;;;;;;;;;;8.97;78.71;102629.19;5021451;28;20124;-74
2021/12/13 08:15:21;;;;;;;24.52;11.60;;;;;;;8.93;78.91;102619.56;5022672;28;19928;-74
2021/12/13 08:17:58;;;;;;;17.25;9.93;;;;;;;8.98;78.31;102630.09;5022184;28;20383;-73
2021/12/13 08:20:34;;;;;;;18.75;10.30;;;;;;;8.96;78.87;102632.72;5003589;28;20442;-71
2021/12/13 08:23:00;;;;;;;15.55;10.40;;;;;;;8.95;78.34;102630.06;5022447;28;20396;-73
2021/12/13 08:25:31;;;;;;;15.65;10.13;;;;;;;8.93;78.76;102635.31;5023812;28;20029;-76
2021/12/13 08:28:00;;;;;;;26.83;11.43;;;;;;;8.95;78.57;102632.72;5022906;28;20068;-74
2021/12/13 08:30:42;;;;;;;21.15;11.77;;;;;;;8.96;78.37;102621.31;5010458;28;20045;-77
2021/12/13 08:33:20;;;;;;;16.40;10.05;;;;;;;8.99;78.40;102621.31;5009050;28;20025;-73
2021/12/13 08:35:58;;;;;;;19.17;10.75;;;;;;;8.98;78.57;102622.19;5012440;28;20029;-74
2021/12/13 08:38:35;;;;;;;20.25;11.57;;;;;;;9.01;78.42;102627.47;5022499;28;20036;-78
2021/12/13 08:41:25;;;;;;;24.55;11.80;;;;;;;8.99;78.37;102623.94;5013761;28;20488;-75
2021/12/13 08:44:05;;;;;;;17.40;9.63;;;;;;;8.97;78.22;102628.31;5015350;28;20034;-74
2021/12/13 08:46:40;;;;;;;18.65;11.50;;;;;;;8.97;78.16;102629.19;5011766;28;20121;-76
2021/12/13 08:49:15;;;;;;;19.38;10.32;;;;;;;8.98;78.53;102637.97;5015365;28;20026;-74
2021/12/13 08:51:50;;;;;;;19.15;11.35;;;;;;;8.96;78.52;102640.59;5013992;28;20198;-76
2021/12/13 08:54:16;;;;;;;19.38;11.77;;;;;;;9.01;78.68;102643.25;5016421;28;20057;-73
2021/12/13 08:56:46;;;;;;;21.70;12.52;;;;;;;9.06;78.12;102649.38;5009345;28;20452;-75
2021/12/13 08:59:24;;;;;;;21.50;11.70;;;;;;;9.06;78.30;102654.63;5023118;28;20240;-73
2021/12/13 09:01:56;;;;;;;20.63;11.85;;;;;;;9.09;78.48;102657.25;5027531;28;20034;-74
2021/12/13 09:04:34;;;;;;;18.00;10.88;;;;;;;9.14;78.39;102661.66;5022375;28;20810;-72
2021/12/13 09:07:03;;;;;;;19.07;11.23;;;;;;;9.19;77.85;102671.31;5022876;28;20037;-74
2021/12/13 09:09:29;;;;;;;21.63;12.13;;;;;;;9.19;78.07;102671.31;5013076;28;20030;-74
2021/12/13 09:11:59;;;;;;;19.60;11.60;;;;;;;9.21;77.92;102668.66;5019786;28;20052;-74
2021/12/13 09:14:26;;;;;;;21.75;12.27;;;;;;;9.28;77.62;102674.81;5024702;28;20052;-74
2021/12/13 09:17:10;;;;;;;23.75;11.63;;;;;;;9.27;77.71;102678.34;5029550;28;20021;-74
2021/12/13 09:19:44;;;;;;;21.05;12.10;;;;;;;9.31;77.58;102678.34;5020459;28;20037;-78
2021/12/13 09:22:14;;;;;;;20.52;11.65;;;;;;;9.33;77.36;102689.75;5022116;28;20395;-70
2021/12/13 09:24:42;;;;;;;18.85;12.25;;;;;;;9.37;77.15;102695.00;5019960;28;20029;-72
2021/12/13 09:27:13;;;;;;;21.40;12.10;;;;;;;9.39;77.30;102709.06;5023383;28;20041;-76
2021/12/13 09:29:47;;;;;;;15.65;10.93;;;;;;;9.43;77.48;102713.44;5013928;28;20780;-73
2021/12/13 09:32:13;;;;;;;20.02;11.68;;;;;;;9.51;77.33;102703.78;5012276;28;20037;-73
2021/12/13 09:34:39;;;;;;;22.15;11.38;;;;;;;9.47;77.05;102717.81;5022816;28;20483;-74
2021/12/13 09:37:05;;;;;;;21.73;11.27;;;;;;;9.44;77.51;102718.69;5024725;28;20335;-72
2021/12/13 09:39:30;;;;;;;15.50;11.00;;;;;;;9.52;77.28;102725.72;5021869;28;20036;-72
2021/12/13 09:41:59;;;;;;;19.52;10.75;;;;;;;9.52;77.34;102723.97;5027551;28;20018;-72
2021/12/13 09:44:32;;;;;;;22.13;11.48;;;;;;;9.58;77.22;102723.94;5012575;28;20064;-71
2021/12/13 09:47:06;;;;;;;22.92;10.10;;;;;;;9.63;76.63;102734.50;5008151;28;20055;-69
2021/12/13 09:49:35;;;;;;;18.92;11.20;;;;;;;9.64;76.54;102735.38;5028241;28;20065;-73
2021/12/13 09:52:09;;;;;;;21.70;13.10;;;;;;;9.69;76.76;102738.91;5028467;28;20052;-77
2021/12/13 09:54:40;;;;;;;16.45;11.00;;;;;;;9.78;76.52;102736.25;5022155;28;20083;-74
2021/12/13 09:57:09;;;;;;;22.25;11.63;;;;;;;9.72;76.29;102733.63;5017768;28;20076;-73
2021/12/13 09:59:41;;;;;;;23.08;12.77;;;;;;;9.61;76.90;102739.75;5010488;28;20407;-71
2021/12/13 10:02:14;;;;;;;18.17;11.15;;;;;;;9.73;76.38;102733.63;5026600;28;20037;-68
2021/12/13 10:04:42;;;;;;;18.88;9.93;;;;;;;9.78;76.08;102727.50;5019472;28;20037;-70
2021/12/13 10:07:14;;;;;;;19.83;10.88;;;;;;;9.79;75.87;102722.22;5026017;28;20061;-70
2021/12/13 10:09:50;;;;;;;17.15;10.88;;;;;;;9.85;75.81;102723.97;5020233;28;20042;-68
2021/12/13 10:12:19;;;;;;;16.88;10.75;;;;;;;9.91;75.26;102733.63;5047635;28;20036;-76
2021/12/13 10:14:51;;;;;;;20.35;11.07;;;;;;;9.90;75.75;102724.84;5010648;28;20022;-76
2021/12/13 10:17:18;;;;;;;18.80;11.75;;;;;;;9.96;75.22;102726.59;5017474;28;20034;-76
2021/12/13 10:19:49;;;;;;;18.48;10.77;;;;;;;9.93;75.13;102726.63;5005135;28;20042;-76
2021/12/13 10:22:17;;;;;;;14.20;9.65;;;;;;;9.98;74.88;102724.84;5028129;28;20033;-69
2021/12/13 10:24:50;;;;;;;20.88;11.48;;;;;;;9.94;75.10;102726.59;5025877;28;20065;-76
2021/12/13 10:27:16;;;;;;;18.10;10.63;;;;;;;9.93;75.40;102723.97;5026796;28;20110;-73
2021/12/13 10:29:47;;;;;;;17.98;11.35;;;;;;;9.92;75.06;102725.72;5026006;28;20040;-73
2021/12/13 10:32:17;;;;;;;19.52;11.02;;;;;;;9.96;75.35;102721.31;5026314;28;20049;-76
2021/12/13 10:34:47;;;;;;;21.13;12.15;;;;;;;9.92;75.30;102709.03;5023208;28;20792;-74
2021/12/13 10:37:20;;;;;;;23.08;11.18;;;;;;;9.97;75.41;102713.41;5008696;28;20433;-73
2021/12/13 10:39:50;;;;;;;18.33;10.77;;;;;;;10.02;75.33;102713.41;5021716;28;20059;-76
2021/12/13 10:42:35;;;;;;;22.65;12.25;;;;;;;10.04;74.92;102719.56;5026340;28;20159;-78
2021/12/13 10:45:05;;;;;;;20.67;11.40;;;;;;;9.93;75.36;102723.97;5025677;28;20331;-77
2021/12/13 10:47:35;;;;;;;18.15;10.82;;;;;;;10.02;74.92;102731.84;5018494;28;20452;-70
2021/12/13 10:50:03;;;;;;;22.50;11.48;;;;;;;10.00;74.94;102733.63;5022108;28;20121;-72
2021/12/13 10:52:34;;;;;;;19.92;11.68;;;;;;;10.04;74.74;102727.47;5025580;28;20036;-73
2021/12/13 10:55:08;;;;;;;16.15;10.23;;;;;;;10.03;74.87;102725.72;5023099;28;20310;-72
2021/12/13 10:57:37;;;;;;;18.95;11.20;;;;;;;10.09;74.49;102714.28;5007784;28;20033;-65
2021/12/13 11:00:07;;;;;;;;;;;;;;;10.06;75.25;102714.31;5025090;28;20017;-72
2021/12/13 11:02:34;;;;;;;19.48;11.70;;;;;;;10.05;75.12;102709.94;5021212;28;19917;-75
2021/12/13 11:05:13;;;;;;;18.73;10.18;;;;;;;10.10;74.64;102714.28;5023546;28;20404;-74
2021/12/13 11:07:39;;;;;;;18.75;9.98;;;;;;;10.06;75.03;102715.16;5007340;28;20407;-72
2021/12/13 11:10:07;;;;;;;16.45;9.93;;;;;;;10.10;75.09;102719.56;5025863;28;20095;-72
2021/12/13 11:12:40;;;;;;;16.80;10.10;;;;;;;10.15;74.63;102719.56;5022858;28;20037;-63
2021/12/13 11:15:14;;;;;;;20.50;11.30;;;;;;;10.15;74.25;102710.78;5025227;28;20018;-74
2021/12/13 11:17:40;;;;;;;19.98;10.93;;;;;;;10.20;74.27;102711.63;5025418;28;20132;-71
2021/12/13 11:20:17;;;;;;;19.00;10.15;;;;;;;10.11;74.70;102712.53;5008583;28;20026;-70
2021/12/13 11:22:44;;;;;;;21.52;11.32;;;;;;;10.06;74.27;102714.31;5025791;28;20037;-70
2021/12/13 11:25:20;;;;;;;17.40;9.65;;;;;;;10.13;74.69;102710.78;5026179;28;20017;-74
2021/12/13 11:27:45;;;;;;;15.27;10.00;;;;;;;10.17;73.98;102703.75;5025607;28;20034;-66
2021/12/13 11:30:21;;;;;;;20.77;11.10;;;;;;;10.17;74.00;102703.75;5042693;28;20020;-70
2021/12/13 11:32:58;;;;;;;16.83;10.20;;;;;;;10.17;74.32;102703.75;5044931;28;20532;-69
2021/12/13 11:36:04;;;;;;;20.42;11.43;;;;;;;10.18;74.16;102702.88;5027350;28;20037;-69
2021/12/13 11:38:55;;;;;;;19.77;9.88;;;;;;;10.10;74.66;102701.13;5014997;28;20471;-69
2021/12/13 11:41:58;;;;;;;19.73;10.68;;;;;;;10.12;74.54;102703.75;5014023;28;20038;-72
2021/12/13 11:44:54;;;;;;;20.00;12.02;;;;;;;10.03;75.15;102709.94;5015996;28;20021;-72
2021/12/13 11:47:40;;;;;;;15.82;10.05;;;;;;;10.07;74.76;102716.03;5021521;28;20096;-72
2021/12/13 11:50:31;;;;;;;16.10;10.05;;;;;;;10.07;74.34;102709.03;5021230;28;20091;-69
2021/12/13 11:53:34;;;;;;;22.52;10.68;;;;;;;10.01;74.98;102711.66;5009416;28;20026;-68
2021/12/13 11:56:24;;;;;;;16.70;10.10;;;;;;;10.05;74.14;102705.50;5017483;28;20033;-73
2021/12/13 11:58:55;;;;;;;19.23;10.13;;;;;;;10.11;74.55;102702.88;5024986;28;20029;-68